createdAt,value
2023-05-16T00:00:27.739Z,36.91
2023-05-16T00:03:33.516Z,36.91
2023-05-16T00:06:40.165Z,36.90
2023-05-16T00:09:46.024Z,37.00
2023-05-16T00:12:51.497Z,36.83
2023-05-16T00:15:58.203Z,36.91
2023-05-16T00:19:08.151Z,36.82
2023-05-16T00:22:14.652Z,36.98
2023-05-16T00:25:20.858Z,36.83
2023-05-16T00:28:25.762Z,36.63
2023-05-16T00:31:31.992Z,36.17
2023-05-16T00:34:37.775Z,36.15
2023-05-16T00:37:45.155Z,36.16
2023-05-16T00:40:50.780Z,36.30
2023-05-16T00:43:56.360Z,36.10
2023-05-16T00:47:02.346Z,36.25
2023-05-16T00:50:07.952Z,36.32
2023-05-16T00:53:13.705Z,36.38
2023-05-16T00:56:20.145Z,36.58
2023-05-16T00:59:26.943Z,36.43
2023-05-16T01:02:33.727Z,36.25
2023-05-16T01:05:40.163Z,36.09
2023-05-16T01:08:45.719Z,35.99
2023-05-16T01:12:45.297Z,36.00
2023-05-16T01:16:00.532Z,36.75
2023-05-16T01:19:16.722Z,36.48
2023-05-16T01:22:37.783Z,36.70
2023-05-16T01:26:12.973Z,36.31
2023-05-16T01:29:18.549Z,36.32
2023-05-16T01:32:24.199Z,35.81
2023-05-16T01:35:30.897Z,35.60
2023-05-16T01:38:41.473Z,35.45
2023-05-16T01:42:02.603Z,35.60
2023-05-16T01:45:39.800Z,35.55
2023-05-16T01:48:49.969Z,35.38
2023-05-16T01:51:55.798Z,35.32
2023-05-16T01:55:01.682Z,36.06
2023-05-16T01:58:06.865Z,36.21
2023-05-16T02:01:12.778Z,35.95
2023-05-16T02:04:05.649Z,35.88
2023-05-16T02:07:12.689Z,36.08
2023-05-16T02:10:17.914Z,35.94
2023-05-16T02:13:23.027Z,35.84
2023-05-16T02:16:27.834Z,35.79
2023-05-16T02:19:33.192Z,35.82
2023-05-16T02:22:39.770Z,35.90
2023-05-16T02:25:45.990Z,35.81
2023-05-16T02:28:56.185Z,35.06
2023-05-16T02:32:01.687Z,34.92
2023-05-16T02:35:08.007Z,34.72
2023-05-16T02:38:14.654Z,34.16
2023-05-16T02:41:19.879Z,33.79
2023-05-16T02:44:25.661Z,33.50
2023-05-16T02:47:31.790Z,33.26
2023-05-16T02:50:38.140Z,33.41
2023-05-16T02:53:43.952Z,33.28
2023-05-16T02:56:51.823Z,33.59
2023-05-16T02:59:58.603Z,33.65
2023-05-16T03:03:05.482Z,33.76
2023-05-16T03:06:12.769Z,33.85
2023-05-16T03:09:19.002Z,34.01
2023-05-16T03:12:24.902Z,33.87
2023-05-16T03:15:30.095Z,33.81
2023-05-16T03:18:35.953Z,33.65
2023-05-16T03:21:42.989Z,33.28
2023-05-16T03:24:47.851Z,33.47
2023-05-16T03:27:53.552Z,33.58
2023-05-16T03:30:59.438Z,33.39
2023-05-16T03:34:04.380Z,33.42
2023-05-16T03:37:10.785Z,33.29
2023-05-16T03:40:16.740Z,32.94
2023-05-16T03:43:23.373Z,32.77
2023-05-16T03:46:29.377Z,32.71
2023-05-16T03:49:35.635Z,32.30
2023-05-16T03:52:40.469Z,32.54
2023-05-16T03:55:48.097Z,32.71
2023-05-16T03:58:53.652Z,32.88
2023-05-16T04:01:59.328Z,33.06
2023-05-16T04:05:04.066Z,32.49
2023-05-16T04:08:10.442Z,32.49
2023-05-16T04:11:16.900Z,32.77
2023-05-16T04:14:22.680Z,32.38
2023-05-16T04:17:28.290Z,32.38
2023-05-16T04:20:33.242Z,31.96
2023-05-16T04:23:37.932Z,31.51
2023-05-16T04:26:44.372Z,31.88
2023-05-16T04:29:50.223Z,31.32
2023-05-16T04:32:55.618Z,30.93
2023-05-16T04:36:01.202Z,30.55
2023-05-16T04:39:06.962Z,30.69
2023-05-16T04:42:14.150Z,30.33
2023-05-16T04:45:20.932Z,29.90
2023-05-16T04:48:26.632Z,30.70
2023-05-16T04:51:33.307Z,29.69
2023-05-16T04:54:38.862Z,29.51
2023-05-16T04:57:44.258Z,28.92
2023-05-16T05:00:49.960Z,28.83
2023-05-16T05:03:57.091Z,28.97
2023-05-16T05:07:03.257Z,28.59
2023-05-16T05:10:09.142Z,28.28
2023-05-16T05:13:14.510Z,27.87
2023-05-16T05:16:20.971Z,27.69
2023-05-16T05:19:27.159Z,27.34
2023-05-16T05:22:33.660Z,27.71
2023-05-16T05:25:46.174Z,27.71
2023-05-16T05:29:03.877Z,25.67
2023-05-16T05:32:00.283Z,25.71
2023-05-16T05:35:06.441Z,25.99
2023-05-16T05:38:12.411Z,25.69
2023-05-16T05:41:19.259Z,25.21
2023-05-16T05:44:28.967Z,25.36
2023-05-16T05:47:34.804Z,25.38
2023-05-16T05:50:40.358Z,24.33
2023-05-16T05:53:45.780Z,25.46
2023-05-16T05:56:50.560Z,24.69
2023-05-16T05:59:57.448Z,23.93
2023-05-16T06:03:04.293Z,24.57
2023-05-16T06:06:09.700Z,23.92
2023-05-16T06:09:15.433Z,23.97
2023-05-16T06:12:20.080Z,24.79
2023-05-16T06:15:26.305Z,23.45
2023-05-16T06:18:32.506Z,24.01
2023-05-16T06:21:38.028Z,23.54
2023-05-16T06:24:45.187Z,22.89
2023-05-16T06:27:50.916Z,23.04
2023-05-16T06:30:57.891Z,23.64
2023-05-16T06:34:04.083Z,23.29
2023-05-16T06:37:11.034Z,23.69
2023-05-16T06:40:16.397Z,23.67
2023-05-16T06:43:22.684Z,24.09
2023-05-16T06:46:29.620Z,23.06
2023-05-16T06:49:35.826Z,23.50
2023-05-16T06:52:41.509Z,23.30
2023-05-16T06:55:47.447Z,23.22
2023-05-16T06:58:53.421Z,23.61
2023-05-16T07:01:59.531Z,23.54
2023-05-16T07:05:04.695Z,23.02
2023-05-16T07:08:10.344Z,23.39
2023-05-16T07:11:15.778Z,22.77
2023-05-16T07:14:21.507Z,22.88
2023-05-16T07:17:33.678Z,23.41
2023-05-16T07:20:40.706Z,22.68
2023-05-16T07:23:46.578Z,22.63
2023-05-16T07:26:53.115Z,22.16
2023-05-16T07:29:58.421Z,22.49
2023-05-16T07:33:04.996Z,22.50
2023-05-16T07:36:16.875Z,21.87
2023-05-16T07:39:18.081Z,22.29
2023-05-16T07:42:23.538Z,23.53
2023-05-16T07:45:29.839Z,22.85
2023-05-16T07:48:36.156Z,22.63
2023-05-16T07:51:43.544Z,23.74
2023-05-16T07:54:49.952Z,23.42
2023-05-16T07:57:56.087Z,23.54
2023-05-16T08:01:01.918Z,23.41
2023-05-16T08:04:08.477Z,22.54
2023-05-16T08:07:14.044Z,22.60
2023-05-16T08:10:20.862Z,22.68
2023-05-16T08:13:26.435Z,22.09
2023-05-16T08:16:31.908Z,21.68
2023-05-16T08:19:40.444Z,22.04
2023-05-16T08:22:47.199Z,22.64
2023-05-16T08:25:55.199Z,21.77
2023-05-16T08:29:00.581Z,21.59
2023-05-16T08:31:59.567Z,20.70
2023-05-16T08:35:06.213Z,21.63
2023-05-16T08:38:12.931Z,21.17
2023-05-16T08:41:17.991Z,22.74
2023-05-16T08:44:25.379Z,21.46
2023-05-16T08:47:35.178Z,21.21
2023-05-16T08:50:40.072Z,20.91
2023-05-16T08:53:49.509Z,21.65
2023-05-16T08:56:56.674Z,21.13
2023-05-16T09:00:03.609Z,22.33
2023-05-16T09:03:09.972Z,20.08
2023-05-16T09:06:15.294Z,19.91
2023-05-16T09:09:21.001Z,19.42
2023-05-16T09:12:26.689Z,19.31
2023-05-16T09:15:33.629Z,21.06
2023-05-16T09:18:38.970Z,21.44
2023-05-16T09:21:48.854Z,21.41
2023-05-16T09:24:56.306Z,21.63
2023-05-16T09:28:03.905Z,19.76
2023-05-16T09:31:10.051Z,20.27
2023-05-16T09:34:15.864Z,20.27
2023-05-16T09:37:21.459Z,21.04
2023-05-16T09:40:27.580Z,20.95
2023-05-16T09:43:37.509Z,20.79
2023-05-16T09:46:45.367Z,20.41
2023-05-16T09:49:52.795Z,20.37
2023-05-16T09:52:59.317Z,19.54
2023-05-16T09:56:05.333Z,20.27
2023-05-16T09:59:10.770Z,20.00
2023-05-16T10:02:16.316Z,19.53
2023-05-16T10:05:24.436Z,19.47
2023-05-16T10:08:31.011Z,20.24
2023-05-16T10:11:36.617Z,20.69
2023-05-16T10:14:43.481Z,20.69
2023-05-16T10:17:52.202Z,21.00
2023-05-16T10:21:00.017Z,21.55
2023-05-16T10:24:05.594Z,20.42
2023-05-16T10:27:11.052Z,20.14
2023-05-16T10:30:16.491Z,20.25
2023-05-16T10:33:22.997Z,19.91
2023-05-16T10:36:29.271Z,21.45
2023-05-16T10:39:34.002Z,19.74
2023-05-16T10:42:40.084Z,19.83
2023-05-16T10:45:46.900Z,19.96
2023-05-16T10:48:55.082Z,20.05
2023-05-16T10:52:19.749Z,19.93
2023-05-16T10:55:25.734Z,20.15
2023-05-16T10:58:54.392Z,20.62
2023-05-16T11:02:00.846Z,20.56
2023-05-16T11:05:05.898Z,20.79
2023-05-16T11:08:21.952Z,20.79
2023-05-16T11:12:05.599Z,21.11
2023-05-16T11:15:11.350Z,20.46
2023-05-16T11:18:29.907Z,20.64
2023-05-16T11:21:35.582Z,22.07
2023-05-16T11:24:45.345Z,22.52
2023-05-16T11:27:53.481Z,22.40
2023-05-16T11:31:02.416Z,22.33
2023-05-16T11:34:07.708Z,21.46
2023-05-16T11:40:30.776Z,21.59
2023-05-16T11:43:37.431Z,22.17
2023-05-16T11:46:42.757Z,21.64
2023-05-16T11:49:49.621Z,21.44
2023-05-16T11:52:54.838Z,21.90
2023-05-16T11:56:00.219Z,22.29
2023-05-16T11:59:06.220Z,21.50
2023-05-16T12:02:14.519Z,21.45
2023-05-16T12:05:27.602Z,22.22
2023-05-16T12:08:32.900Z,21.85
2023-05-16T12:11:41.475Z,23.02
2023-05-16T12:14:47.378Z,22.02
2023-05-16T12:17:55.311Z,22.74
2023-05-16T12:21:01.593Z,23.64
2023-05-16T12:24:10.915Z,23.82
2023-05-16T12:27:17.943Z,24.46
2023-05-16T12:30:25.620Z,24.71
2023-05-16T12:33:31.137Z,24.57
2023-05-16T12:36:36.641Z,24.94
2023-05-16T12:39:42.176Z,24.68
2023-05-16T12:42:47.915Z,23.92
2023-05-16T12:45:53.573Z,24.34
2023-05-16T12:49:00.193Z,23.51
2023-05-16T12:52:09.860Z,22.17
2023-05-16T12:55:17.383Z,21.91
2023-05-16T12:58:23.155Z,21.41
2023-05-16T13:01:29.757Z,22.54
2023-05-16T13:04:36.270Z,22.93
2023-05-16T13:07:42.319Z,23.07
2023-05-16T13:10:48.139Z,23.26
2023-05-16T13:13:54.165Z,23.51
2023-05-16T13:17:00.175Z,24.37
2023-05-16T13:20:05.810Z,24.75
2023-05-16T13:23:13.445Z,25.54
2023-05-16T13:26:23.118Z,26.07
2023-05-16T13:29:27.967Z,26.38
2023-05-16T13:32:33.776Z,26.79
2023-05-16T13:35:40.454Z,26.83
2023-05-16T13:38:46.102Z,27.15
2023-05-16T13:41:51.896Z,27.56
2023-05-16T13:44:58.551Z,28.00
2023-05-16T13:48:04.984Z,28.08
2023-05-16T13:51:10.836Z,28.23
2023-05-16T13:54:16.349Z,28.28
2023-05-16T13:57:16.050Z,29.39
2023-05-16T14:03:16.047Z,29.87
2023-05-16T14:06:21.681Z,29.79
2023-05-16T14:09:27.647Z,30.07
2023-05-16T14:12:33.713Z,30.16
2023-05-16T14:15:39.769Z,30.53
2023-05-16T14:18:45.924Z,30.69
2023-05-16T14:21:52.750Z,30.83
2023-05-16T14:24:58.988Z,31.34
2023-05-16T14:28:04.225Z,31.08
2023-05-16T14:31:10.284Z,30.95
2023-05-16T14:34:15.676Z,30.54
2023-05-16T14:37:22.710Z,30.26
2023-05-16T14:40:29.147Z,30.30
2023-05-16T14:43:35.757Z,30.16
2023-05-16T14:46:42.407Z,30.09
2023-05-16T14:49:48.209Z,29.86
2023-05-16T14:52:49.798Z,30.60
2023-05-16T14:55:56.108Z,30.77
2023-05-16T14:59:01.701Z,31.17
2023-05-16T15:02:07.239Z,31.59
2023-05-16T15:05:14.399Z,31.40
2023-05-16T15:08:20.970Z,31.30
2023-05-16T15:11:25.938Z,31.04
2023-05-16T15:14:33.734Z,30.77
2023-05-16T15:17:40.330Z,30.88
2023-05-16T15:20:46.387Z,30.73
2023-05-16T15:23:53.952Z,30.43
2023-05-16T15:27:01.099Z,30.41
2023-05-16T15:30:06.125Z,29.80
2023-05-16T15:33:12.654Z,29.71
2023-05-16T15:36:18.181Z,29.85
2023-05-16T15:39:24.729Z,29.92
2023-05-16T15:42:31.400Z,30.07
2023-05-16T15:45:40.499Z,30.14
2023-05-16T15:48:49.178Z,30.25
2023-05-16T15:51:55.721Z,29.84
2023-05-16T15:55:01.991Z,29.84
2023-05-16T15:58:08.522Z,29.36
2023-05-16T16:01:15.237Z,29.37
2023-05-16T16:04:22.539Z,30.10
2023-05-16T16:07:27.755Z,30.41
2023-05-16T16:10:37.646Z,30.44
2023-05-16T16:13:45.067Z,30.51
2023-05-16T16:16:50.345Z,30.59
2023-05-16T16:19:55.900Z,31.01
2023-05-16T16:23:01.867Z,30.93
2023-05-16T16:26:08.383Z,30.89
2023-05-16T16:29:14.716Z,31.09
2023-05-16T16:32:23.391Z,31.09
2023-05-16T16:35:31.505Z,31.27
2023-05-16T16:38:37.467Z,31.38
2023-05-16T16:41:44.146Z,31.30
2023-05-16T16:44:50.216Z,31.39
2023-05-16T16:47:56.109Z,31.48
2023-05-16T16:51:01.559Z,31.54
2023-05-16T16:54:07.459Z,31.79
2023-05-16T16:57:13.244Z,32.02
2023-05-16T17:00:21.545Z,32.19
2023-05-16T17:03:26.724Z,32.49
2023-05-16T17:06:33.519Z,32.73
2023-05-16T17:09:40.285Z,32.82
2023-05-16T17:12:51.170Z,33.06
2023-05-16T17:15:56.727Z,33.88
2023-05-16T17:19:03.492Z,34.07
2023-05-16T17:22:08.823Z,34.61
2023-05-16T17:25:13.350Z,34.69
2023-05-16T17:28:18.882Z,35.08
2023-05-16T17:31:24.720Z,35.11
2023-05-16T17:34:31.118Z,35.48
2023-05-16T17:37:37.040Z,35.71
2023-05-16T17:40:43.664Z,35.85
2023-05-16T17:43:49.988Z,35.98
2023-05-16T17:46:56.477Z,36.00
2023-05-16T17:50:02.445Z,35.56
2023-05-16T17:53:08.909Z,35.63
2023-05-16T17:56:15.878Z,35.72
2023-05-16T17:59:21.351Z,36.17
2023-05-16T18:02:27.108Z,36.27
2023-05-16T18:05:32.956Z,36.31
2023-05-16T18:08:40.149Z,36.09
2023-05-16T18:11:41.834Z,35.86
2023-05-16T18:14:43.078Z,35.94
2023-05-16T18:17:48.591Z,35.79
2023-05-16T18:20:54.971Z,35.52
2023-05-16T18:24:03.689Z,36.07
2023-05-16T18:27:10.169Z,36.06
2023-05-16T18:30:16.903Z,36.21
2023-05-16T18:33:23.006Z,36.10
2023-05-16T18:36:27.980Z,35.92
2023-05-16T18:39:34.771Z,35.87
2023-05-16T18:42:40.224Z,36.05
2023-05-16T18:45:46.341Z,35.89
2023-05-16T18:48:52.298Z,36.28
2023-05-16T18:51:56.881Z,36.37
2023-05-16T18:55:02.406Z,36.61
2023-05-16T18:58:07.972Z,36.84
2023-05-16T19:01:13.198Z,37.27
2023-05-16T19:04:19.120Z,37.55
2023-05-16T19:07:25.944Z,37.60
2023-05-16T19:10:32.504Z,37.94
2023-05-16T19:13:38.955Z,37.77
2023-05-16T19:16:44.709Z,37.53
2023-05-16T19:19:50.475Z,37.11
2023-05-16T19:22:58.691Z,36.39
2023-05-16T19:26:05.445Z,35.69
2023-05-16T19:29:11.591Z,35.12
2023-05-16T19:32:17.758Z,35.48
2023-05-16T19:35:25.658Z,35.03
2023-05-16T19:38:33.089Z,35.30
2023-05-16T19:41:38.417Z,35.03
2023-05-16T19:44:44.319Z,35.02
2023-05-16T19:47:50.350Z,35.20
2023-05-16T19:50:57.770Z,35.04
2023-05-16T19:54:03.532Z,35.01
2023-05-16T19:57:09.221Z,35.77
2023-05-16T20:00:16.783Z,35.81
2023-05-16T20:03:21.997Z,36.13
2023-05-16T20:06:27.521Z,35.96
2023-05-16T20:09:35.107Z,35.67
2023-05-16T20:12:41.225Z,35.84
2023-05-16T20:15:47.877Z,36.10
2023-05-16T20:18:54.290Z,35.98
2023-05-16T20:22:01.704Z,35.88
2023-05-16T20:25:06.964Z,36.02
2023-05-16T20:28:06.013Z,36.15
2023-05-16T20:31:12.643Z,36.29
2023-05-16T20:34:18.422Z,36.37
2023-05-16T20:37:24.041Z,36.54
2023-05-16T20:40:30.325Z,36.71
2023-05-16T20:43:36.102Z,36.80
2023-05-16T20:46:42.098Z,36.89
2023-05-16T20:49:50.047Z,36.70
2023-05-16T20:52:55.930Z,36.71
2023-05-16T20:56:02.035Z,36.87
2023-05-16T20:59:00.887Z,36.80
2023-05-16T21:02:07.216Z,36.82
2023-05-16T21:05:24.208Z,36.91
2023-05-16T21:08:21.695Z,36.94
2023-05-16T21:11:28.563Z,36.93
2023-05-16T21:14:33.641Z,36.91
2023-05-16T21:17:39.032Z,36.72
2023-05-16T21:20:45.878Z,36.57
2023-05-16T21:23:51.417Z,37.02
2023-05-16T21:26:56.906Z,37.85
2023-05-16T21:30:04.161Z,38.21
2023-05-16T21:33:10.139Z,37.88
2023-05-16T21:36:15.418Z,37.91
2023-05-16T21:39:21.089Z,38.03
2023-05-16T21:42:27.327Z,37.39
2023-05-16T21:45:33.212Z,37.72
2023-05-16T21:48:38.785Z,37.66
2023-05-16T21:51:44.586Z,38.57
2023-05-16T21:54:50.202Z,38.42
2023-05-16T21:57:56.028Z,38.56
2023-05-16T22:01:01.946Z,38.29
2023-05-16T22:04:07.694Z,37.01
2023-05-16T22:07:12.801Z,37.33
2023-05-16T22:10:18.561Z,37.38
2023-05-16T22:13:23.352Z,38.06
2023-05-16T22:16:29.235Z,37.72
2023-05-16T22:19:35.057Z,38.05
2023-05-16T22:22:41.978Z,38.06
2023-05-16T22:25:48.345Z,38.41
2023-05-16T22:28:53.690Z,37.90
2023-05-16T22:31:59.116Z,37.67
2023-05-16T22:35:05.737Z,37.79
2023-05-16T22:38:12.001Z,37.39
2023-05-16T22:41:17.952Z,37.90
2023-05-16T22:44:23.310Z,38.02
2023-05-16T22:47:29.393Z,38.71
2023-05-16T22:50:35.251Z,39.06
2023-05-16T22:53:42.056Z,39.02
2023-05-16T22:56:47.764Z,39.16
2023-05-16T22:59:53.117Z,39.14
2023-05-16T23:02:58.977Z,39.23
2023-05-16T23:06:05.138Z,39.76
2023-05-16T23:09:11.529Z,39.65
2023-05-16T23:12:16.945Z,39.14
2023-05-16T23:15:23.384Z,38.91
2023-05-16T23:18:30.162Z,38.80
2023-05-16T23:21:35.386Z,39.25
2023-05-16T23:24:41.773Z,38.93
2023-05-16T23:27:48.201Z,38.98
2023-05-16T23:30:55.041Z,39.08
2023-05-16T23:34:00.891Z,39.29
2023-05-16T23:37:06.508Z,39.77
2023-05-16T23:40:11.329Z,39.62
2023-05-16T23:43:17.697Z,39.61
2023-05-16T23:46:23.427Z,39.57
2023-05-16T23:49:28.637Z,40.18
2023-05-16T23:52:34.486Z,40.25
2023-05-16T23:55:40.167Z,40.36
2023-05-16T23:58:46.121Z,39.58
